createdAt,value
2023-07-30T00:01:34.090Z,75.91
2023-07-30T00:04:01.363Z,75.85
2023-07-30T00:06:28.251Z,75.87
2023-07-30T00:08:54.913Z,76.11
2023-07-30T00:11:21.618Z,75.93
2023-07-30T00:13:48.358Z,76.21
2023-07-30T00:16:15.207Z,76.08
2023-07-30T00:18:41.870Z,76.40
2023-07-30T00:21:08.583Z,76.16
2023-07-30T00:23:35.385Z,76.42
2023-07-30T00:26:03.040Z,76.05
2023-07-30T00:28:30.051Z,75.89
2023-07-30T00:30:56.738Z,75.92
2023-07-30T00:33:23.447Z,75.93
2023-07-30T00:35:53.058Z,75.46
2023-07-30T00:38:20.326Z,75.67
2023-07-30T00:40:47.006Z,75.50
2023-07-30T00:43:13.722Z,75.28
2023-07-30T00:45:43.978Z,75.26
2023-07-30T00:48:14.687Z,75.20
2023-07-30T00:50:41.753Z,75.21
2023-07-30T00:53:15.209Z,74.97
2023-07-30T00:55:41.989Z,75.10
2023-07-30T00:58:09.972Z,74.88
2023-07-30T01:00:36.749Z,74.70
2023-07-30T01:03:04.307Z,74.86
2023-07-30T01:05:31.109Z,74.52
2023-07-30T01:07:57.781Z,74.72
2023-07-30T01:10:25.843Z,74.63
2023-07-30T01:12:53.185Z,74.19
2023-07-30T01:15:20.318Z,74.66
2023-07-30T01:17:47.082Z,74.62
2023-07-30T01:20:13.859Z,74.83
2023-07-30T01:22:40.519Z,74.66
2023-07-30T01:25:07.648Z,74.91
2023-07-30T01:27:39.938Z,74.95
2023-07-30T01:30:19.354Z,75.13
2023-07-30T01:32:50.087Z,75.24
2023-07-30T01:35:17.553Z,75.08
2023-07-30T01:37:45.897Z,75.17
2023-07-30T01:40:14.124Z,75.03
2023-07-30T01:42:40.752Z,74.89
2023-07-30T01:45:07.926Z,74.94
2023-07-30T01:47:35.294Z,74.93
2023-07-30T01:50:02.159Z,74.76
2023-07-30T01:52:29.509Z,74.63
2023-07-30T01:54:57.762Z,74.37
2023-07-30T01:57:24.578Z,74.42
2023-07-30T01:59:51.405Z,74.59
2023-07-30T02:02:18.097Z,74.67
2023-07-30T02:04:44.823Z,75.09
2023-07-30T02:07:11.528Z,74.70
2023-07-30T02:09:38.218Z,74.68
2023-07-30T02:12:05.141Z,74.80
2023-07-30T02:14:31.960Z,74.97
2023-07-30T02:16:58.777Z,75.27
2023-07-30T02:19:25.397Z,75.71
2023-07-30T02:21:52.008Z,75.83
2023-07-30T02:24:18.791Z,76.37
2023-07-30T02:26:45.486Z,76.23
2023-07-30T02:29:12.091Z,76.48
2023-07-30T02:31:39.026Z,76.60
2023-07-30T02:34:05.846Z,76.65
2023-07-30T02:36:32.733Z,77.08
2023-07-30T02:38:59.573Z,76.76
2023-07-30T02:41:26.341Z,76.76
2023-07-30T02:43:53.191Z,77.10
2023-07-30T02:46:19.960Z,77.26
2023-07-30T02:48:46.746Z,77.23
2023-07-30T02:51:13.553Z,77.41
2023-07-30T02:53:40.429Z,77.48
2023-07-30T02:56:07.102Z,77.48
2023-07-30T02:58:33.834Z,77.59
2023-07-30T03:01:10.785Z,77.40
2023-07-30T03:03:37.734Z,77.40
2023-07-30T03:06:04.501Z,77.13
2023-07-30T03:08:31.186Z,77.53
2023-07-30T03:11:01.090Z,77.22
2023-07-30T03:13:27.824Z,77.65
2023-07-30T03:15:54.653Z,77.63
2023-07-30T03:18:21.338Z,77.51
2023-07-30T03:20:48.351Z,77.50
2023-07-30T03:23:15.047Z,77.36
2023-07-30T03:25:41.759Z,77.30
2023-07-30T03:28:08.502Z,77.32
2023-07-30T03:30:35.907Z,77.40
2023-07-30T03:33:02.755Z,77.55
2023-07-30T03:35:29.470Z,77.35
2023-07-30T03:37:56.434Z,77.17
2023-07-30T03:40:23.187Z,77.28
2023-07-30T03:42:50.608Z,77.32
2023-07-30T03:45:17.343Z,77.30
2023-07-30T03:47:44.283Z,77.70
2023-07-30T03:50:11.155Z,77.58
2023-07-30T03:52:37.875Z,77.25
2023-07-30T03:55:05.419Z,77.35
2023-07-30T03:57:33.408Z,77.34
2023-07-30T04:00:00.950Z,77.42
2023-07-30T04:02:27.949Z,77.37
2023-07-30T04:04:54.620Z,77.34
2023-07-30T04:07:21.282Z,77.47
2023-07-30T04:09:47.907Z,77.36
2023-07-30T04:12:14.570Z,77.51
2023-07-30T04:14:41.248Z,77.44
2023-07-30T04:17:07.851Z,77.37
2023-07-30T04:19:34.575Z,77.53
2023-07-30T04:22:01.320Z,77.81
2023-07-30T04:24:27.938Z,77.68
2023-07-30T04:26:54.621Z,77.67
2023-07-30T04:29:21.468Z,77.50
2023-07-30T04:31:48.644Z,77.47
2023-07-30T04:34:16.600Z,77.40
2023-07-30T04:36:43.344Z,77.54
2023-07-30T04:39:10.057Z,77.44
2023-07-30T04:41:37.620Z,77.33
2023-07-30T04:44:05.193Z,77.57
2023-07-30T04:46:32.264Z,77.43
2023-07-30T04:48:59.108Z,77.23
2023-07-30T04:51:25.794Z,77.55
2023-07-30T04:53:52.384Z,77.48
2023-07-30T04:56:19.048Z,77.22
2023-07-30T04:58:45.737Z,77.37
2023-07-30T05:01:12.452Z,77.19
2023-07-30T05:03:39.160Z,77.27
2023-07-30T05:06:06.198Z,77.53
2023-07-30T05:08:32.890Z,77.30
2023-07-30T05:10:59.807Z,77.37
2023-07-30T05:13:26.535Z,77.48
2023-07-30T05:15:53.371Z,77.24
2023-07-30T05:18:20.112Z,77.38
2023-07-30T05:20:47.583Z,77.35
2023-07-30T05:23:14.438Z,77.47
2023-07-30T05:25:41.244Z,77.40
2023-07-30T05:28:08.146Z,77.78
2023-07-30T05:30:34.860Z,77.77
2023-07-30T05:33:01.559Z,78.03
2023-07-30T05:35:29.718Z,77.89
2023-07-30T05:37:58.197Z,78.29
2023-07-30T05:40:27.257Z,77.78
2023-07-30T05:42:53.921Z,78.03
2023-07-30T05:45:20.854Z,78.14
2023-07-30T05:47:47.643Z,77.82
2023-07-30T05:50:14.430Z,77.83
2023-07-30T05:52:41.087Z,78.11
2023-07-30T05:55:08.808Z,77.90
2023-07-30T05:57:35.495Z,77.94
2023-07-30T06:00:02.467Z,77.66
2023-07-30T06:02:29.144Z,77.56
2023-07-30T06:04:55.965Z,77.48
2023-07-30T06:07:22.916Z,76.94
2023-07-30T06:09:49.978Z,77.24
2023-07-30T06:12:16.678Z,77.22
2023-07-30T06:14:43.553Z,77.44
2023-07-30T06:17:10.586Z,77.03
2023-07-30T06:19:37.538Z,76.32
2023-07-30T06:22:04.516Z,76.29
2023-07-30T06:24:32.891Z,75.93
2023-07-30T06:27:01.513Z,75.68
2023-07-30T06:29:28.115Z,75.70
2023-07-30T06:31:54.814Z,74.94
2023-07-30T06:34:21.631Z,73.86
2023-07-30T06:36:48.244Z,73.83
2023-07-30T06:39:14.902Z,74.20
2023-07-30T06:41:41.725Z,74.15
2023-07-30T06:44:08.518Z,74.11
2023-07-30T06:46:35.172Z,73.83
2023-07-30T06:49:01.965Z,73.98
2023-07-30T06:51:28.796Z,73.98
2023-07-30T06:53:55.606Z,74.37
2023-07-30T06:56:22.341Z,74.75
2023-07-30T06:58:49.047Z,74.21
2023-07-30T07:01:15.843Z,74.59
2023-07-30T07:03:42.572Z,74.43
2023-07-30T07:06:09.237Z,74.75
2023-07-30T07:08:36.042Z,74.38
2023-07-30T07:11:02.721Z,74.22
2023-07-30T07:13:29.442Z,74.07
2023-07-30T07:15:56.085Z,73.98
2023-07-30T07:18:23.280Z,73.99
2023-07-30T07:20:49.961Z,74.08
2023-07-30T07:23:16.736Z,73.87
2023-07-30T07:25:45.154Z,73.25
2023-07-30T07:28:11.852Z,72.54
2023-07-30T07:30:38.762Z,72.25
2023-07-30T07:33:13.750Z,72.47
2023-07-30T07:35:41.216Z,72.23
2023-07-30T07:38:08.040Z,72.19
2023-07-30T07:40:41.196Z,71.79
2023-07-30T07:43:08.946Z,71.56
2023-07-30T07:45:35.736Z,71.60
2023-07-30T07:48:02.487Z,71.32
2023-07-30T07:50:29.356Z,71.37
2023-07-30T07:52:56.095Z,71.33
2023-07-30T07:55:22.880Z,71.71
2023-07-30T07:57:49.687Z,71.66
2023-07-30T08:00:16.437Z,71.61
2023-07-30T08:02:43.324Z,71.70
2023-07-30T08:05:10.332Z,71.99
2023-07-30T08:07:37.071Z,71.84
2023-07-30T08:10:04.199Z,71.74
2023-07-30T08:12:35.325Z,71.87
2023-07-30T08:15:02.081Z,71.76
2023-07-30T08:17:29.221Z,71.72
2023-07-30T08:19:56.228Z,71.92
2023-07-30T08:22:22.990Z,72.08
2023-07-30T08:24:49.950Z,72.27
2023-07-30T08:27:16.825Z,72.80
2023-07-30T08:29:43.579Z,72.72
2023-07-30T08:32:10.316Z,72.56
2023-07-30T08:34:36.988Z,73.15
2023-07-30T08:37:03.892Z,73.11
2023-07-30T08:39:30.574Z,73.10
2023-07-30T08:41:57.303Z,73.05
2023-07-30T08:44:24.014Z,73.39
2023-07-30T08:46:52.494Z,73.62
2023-07-30T08:49:21.346Z,73.47
2023-07-30T08:51:53.963Z,73.98
2023-07-30T08:54:22.024Z,73.72
2023-07-30T08:56:49.813Z,73.79
2023-07-30T08:59:17.582Z,73.46
2023-07-30T09:01:46.548Z,73.64
2023-07-30T09:04:18.112Z,73.25
2023-07-30T09:06:45.307Z,73.01
2023-07-30T09:09:13.056Z,72.46
2023-07-30T09:11:40.144Z,72.70
2023-07-30T09:14:08.195Z,72.52
2023-07-30T09:16:34.880Z,72.65
2023-07-30T09:19:01.611Z,72.03
2023-07-30T09:21:35.813Z,71.81
2023-07-30T09:24:07.502Z,70.63
2023-07-30T09:26:44.493Z,70.78
2023-07-30T09:29:12.061Z,70.00
2023-07-30T09:31:49.757Z,68.67
2023-07-30T09:34:19.140Z,68.90
2023-07-30T09:36:48.295Z,67.51
2023-07-30T09:39:22.172Z,67.70
2023-07-30T09:41:52.366Z,67.40
2023-07-30T09:44:21.660Z,67.82
2023-07-30T09:46:50.753Z,67.39
2023-07-30T09:49:19.525Z,66.46
2023-07-30T09:51:46.424Z,65.20
2023-07-30T09:54:14.505Z,65.07
2023-07-30T09:56:42.524Z,65.61
2023-07-30T09:59:10.257Z,65.53
2023-07-30T10:01:42.627Z,64.76
2023-07-30T10:04:10.991Z,63.79
2023-07-30T10:06:45.272Z,63.32
2023-07-30T10:09:14.358Z,61.83
2023-07-30T10:11:43.734Z,61.29
2023-07-30T10:14:10.783Z,60.22
2023-07-30T10:16:38.119Z,60.48
2023-07-30T10:19:04.983Z,59.84
2023-07-30T10:21:34.089Z,60.12
2023-07-30T10:24:05.175Z,59.51
2023-07-30T10:26:34.808Z,58.72
2023-07-30T10:29:21.600Z,59.69
2023-07-30T10:31:51.406Z,59.98
2023-07-30T10:34:18.456Z,58.75
2023-07-30T10:36:52.418Z,57.90
2023-07-30T10:39:27.752Z,57.37
2023-07-30T10:41:56.344Z,56.34
2023-07-30T10:44:27.619Z,57.10
2023-07-30T10:46:55.652Z,56.22
2023-07-30T10:49:22.849Z,55.12
2023-07-30T10:51:53.975Z,54.51
2023-07-30T10:54:21.097Z,55.00
2023-07-30T10:56:48.009Z,54.53
2023-07-30T10:59:16.278Z,53.72
2023-07-30T11:01:45.351Z,52.19
2023-07-30T11:04:15.363Z,52.85
2023-07-30T11:06:50.600Z,52.85
2023-07-30T11:09:21.184Z,51.25
2023-07-30T11:11:48.959Z,50.98
2023-07-30T11:14:22.985Z,52.13
2023-07-30T11:16:52.414Z,51.71
2023-07-30T11:19:19.832Z,50.32
2023-07-30T11:21:54.185Z,50.13
2023-07-30T11:24:22.327Z,47.45
2023-07-30T11:26:59.723Z,47.70
2023-07-30T11:29:28.050Z,47.01
2023-07-30T11:31:59.069Z,45.38
2023-07-30T11:34:27.219Z,45.50
2023-07-30T11:36:55.588Z,45.09
2023-07-30T11:39:27.911Z,45.52
2023-07-30T11:41:54.610Z,45.07
2023-07-30T11:44:35.522Z,46.23
2023-07-30T11:47:02.357Z,45.34
2023-07-30T11:49:29.076Z,44.03
2023-07-30T11:52:14.633Z,45.79
2023-07-30T11:54:41.488Z,43.72
2023-07-30T11:57:08.369Z,44.49
2023-07-30T11:59:35.212Z,44.13
2023-07-30T12:02:02.691Z,43.99
2023-07-30T12:04:44.591Z,43.03
2023-07-30T12:07:11.614Z,42.25
2023-07-30T12:09:39.498Z,42.53
2023-07-30T12:12:07.484Z,42.95
2023-07-30T12:14:45.653Z,41.91
2023-07-30T12:17:12.437Z,42.44
2023-07-30T12:19:39.678Z,41.96
2023-07-30T12:22:06.629Z,43.01
2023-07-30T12:24:33.468Z,40.90
2023-07-30T12:27:00.220Z,40.59
2023-07-30T12:29:27.511Z,40.65
2023-07-30T12:31:54.968Z,41.33
2023-07-30T12:34:21.730Z,39.55
2023-07-30T12:36:48.440Z,38.36
2023-07-30T12:39:15.205Z,36.67
2023-07-30T12:41:42.222Z,36.71
2023-07-30T12:44:10.776Z,38.16
2023-07-30T12:46:38.210Z,37.94
2023-07-30T12:49:05.883Z,37.78
2023-07-30T12:51:33.897Z,37.44
2023-07-30T12:54:00.744Z,37.95
2023-07-30T12:56:27.602Z,38.05
2023-07-30T12:58:55.930Z,37.75
2023-07-30T13:01:25.004Z,38.06
2023-07-30T13:03:52.943Z,36.46
2023-07-30T13:06:19.655Z,35.41
2023-07-30T13:08:46.516Z,35.77
2023-07-30T13:11:13.576Z,35.23
2023-07-30T13:13:40.655Z,34.27
2023-07-30T13:16:07.330Z,35.91
2023-07-30T13:18:34.363Z,34.92
2023-07-30T13:21:01.076Z,35.12
2023-07-30T13:23:27.850Z,35.59
2023-07-30T13:25:55.023Z,36.52
2023-07-30T13:28:21.821Z,35.57
2023-07-30T13:30:49.023Z,36.63
2023-07-30T13:33:15.936Z,37.28
2023-07-30T13:35:43.022Z,37.67
2023-07-30T13:38:10.223Z,37.06
2023-07-30T13:40:37.090Z,36.80
2023-07-30T13:43:03.935Z,37.12
2023-07-30T13:45:31.115Z,36.08
2023-07-30T13:47:57.906Z,36.74
2023-07-30T13:50:24.837Z,36.23
2023-07-30T13:52:51.995Z,36.47
2023-07-30T13:55:18.847Z,35.28
2023-07-30T13:57:45.644Z,36.63
2023-07-30T14:00:14.142Z,36.79
2023-07-30T14:02:41.324Z,36.31
2023-07-30T14:05:09.188Z,36.48
2023-07-30T14:07:36.384Z,35.93
2023-07-30T14:10:03.715Z,35.59
2023-07-30T14:12:30.584Z,35.90
2023-07-30T14:14:57.551Z,35.39
2023-07-30T14:17:24.759Z,35.78
2023-07-30T14:19:52.281Z,36.76
2023-07-30T14:22:19.456Z,35.90
2023-07-30T14:24:46.291Z,36.69
2023-07-30T14:27:13.342Z,37.11
2023-07-30T14:29:40.526Z,37.49
2023-07-30T14:32:07.942Z,37.03
2023-07-30T14:34:35.456Z,37.39
2023-07-30T14:37:02.179Z,37.34
2023-07-30T14:39:28.861Z,38.25
2023-07-30T14:41:55.786Z,37.21
2023-07-30T14:44:23.240Z,37.34
2023-07-30T14:46:50.280Z,37.26
2023-07-30T14:49:17.785Z,37.96
2023-07-30T14:51:44.626Z,38.11
2023-07-30T14:54:12.123Z,38.52
2023-07-30T14:56:39.488Z,37.71
2023-07-30T14:59:06.693Z,38.26
2023-07-30T15:01:34.641Z,38.75
2023-07-30T15:04:01.942Z,38.25
2023-07-30T15:06:32.689Z,38.55
2023-07-30T15:09:01.214Z,38.19
2023-07-30T15:11:28.638Z,38.16
2023-07-30T15:13:55.573Z,38.91
2023-07-30T15:16:22.283Z,38.71
2023-07-30T15:18:49.235Z,39.72
2023-07-30T15:21:16.255Z,38.84
2023-07-30T15:23:47.138Z,39.47
2023-07-30T15:26:14.139Z,39.43
2023-07-30T15:28:41.936Z,39.94
2023-07-30T15:31:09.095Z,39.05
2023-07-30T15:33:36.873Z,39.93
2023-07-30T15:36:04.228Z,39.55
2023-07-30T15:38:31.377Z,39.82
2023-07-30T15:41:00.003Z,39.52
2023-07-30T15:43:27.564Z,40.06
2023-07-30T15:46:02.692Z,39.55
2023-07-30T15:48:30.706Z,39.79
2023-07-30T15:50:57.741Z,40.11
2023-07-30T15:53:24.754Z,40.25
2023-07-30T15:55:52.010Z,40.84
2023-07-30T15:58:18.893Z,40.12
2023-07-30T16:00:45.692Z,39.92
2023-07-30T16:03:13.462Z,40.22
2023-07-30T16:05:48.671Z,41.27
2023-07-30T16:08:16.573Z,40.29
2023-07-30T16:10:43.601Z,40.53
2023-07-30T16:13:10.606Z,40.77
2023-07-30T16:15:37.900Z,40.89
2023-07-30T16:18:05.114Z,41.37
2023-07-30T16:20:31.806Z,40.96
2023-07-30T16:22:58.788Z,39.99
2023-07-30T16:25:25.520Z,40.65
2023-07-30T16:27:52.981Z,40.73
2023-07-30T16:30:20.132Z,41.05
2023-07-30T16:32:46.854Z,41.24
2023-07-30T16:35:13.911Z,41.19
2023-07-30T16:37:40.786Z,41.20
2023-07-30T16:40:08.551Z,41.15
2023-07-30T16:42:35.219Z,41.17
2023-07-30T16:45:03.863Z,41.31
2023-07-30T16:47:30.995Z,41.70
2023-07-30T16:49:58.283Z,41.81
2023-07-30T16:52:25.602Z,41.55
2023-07-30T16:54:53.269Z,41.30
2023-07-30T16:57:20.118Z,41.75
2023-07-30T16:59:47.180Z,41.37
2023-07-30T17:02:14.586Z,41.40
2023-07-30T17:04:41.411Z,41.68
2023-07-30T17:07:08.210Z,41.63
2023-07-30T17:09:34.996Z,41.64
2023-07-30T17:12:01.772Z,41.41
2023-07-30T17:14:31.096Z,41.63
2023-07-30T17:16:58.031Z,41.83
2023-07-30T17:19:26.562Z,41.53
2023-07-30T17:21:53.260Z,41.32
2023-07-30T17:24:20.462Z,41.69
2023-07-30T17:26:47.271Z,41.50
2023-07-30T17:29:14.361Z,41.60
2023-07-30T17:31:41.282Z,40.92
2023-07-30T17:34:07.980Z,41.18
2023-07-30T17:36:35.905Z,41.44
2023-07-30T17:39:02.914Z,41.78
2023-07-30T17:41:30.333Z,41.96
2023-07-30T17:43:57.158Z,41.64
2023-07-30T17:46:24.169Z,41.43
2023-07-30T17:48:52.074Z,41.62
2023-07-30T17:51:19.324Z,41.34
2023-07-30T17:53:46.716Z,41.54
2023-07-30T17:56:13.617Z,41.65
2023-07-30T17:58:40.439Z,41.45
2023-07-30T18:01:07.984Z,41.25
2023-07-30T18:03:36.702Z,41.61
2023-07-30T18:06:04.485Z,41.72
2023-07-30T18:08:31.489Z,41.90
2023-07-30T18:10:58.384Z,41.93
2023-07-30T18:13:25.817Z,42.24
2023-07-30T18:15:52.930Z,42.36
2023-07-30T18:18:21.325Z,42.28
2023-07-30T18:20:48.440Z,42.51
2023-07-30T18:23:15.451Z,42.45
2023-07-30T18:25:43.015Z,42.21
2023-07-30T18:28:10.005Z,42.62
2023-07-30T18:30:37.971Z,42.36
2023-07-30T18:33:08.338Z,42.64
2023-07-30T18:35:37.726Z,42.62
2023-07-30T18:38:05.426Z,42.83
2023-07-30T18:40:36.882Z,42.74
2023-07-30T18:43:05.444Z,42.96
2023-07-30T18:45:36.296Z,43.07
2023-07-30T18:48:04.090Z,43.05
2023-07-30T18:50:32.333Z,43.17
2023-07-30T18:53:01.350Z,43.21
2023-07-30T18:55:28.083Z,43.39
2023-07-30T18:57:55.036Z,43.35
2023-07-30T19:00:21.948Z,43.16
2023-07-30T19:02:48.775Z,43.59
2023-07-30T19:05:15.908Z,43.91
2023-07-30T19:07:42.596Z,43.90
2023-07-30T19:10:09.577Z,43.61
2023-07-30T19:12:36.312Z,43.91
2023-07-30T19:15:03.759Z,43.92
2023-07-30T19:17:30.603Z,44.32
2023-07-30T19:19:57.339Z,44.08
2023-07-30T19:22:24.427Z,44.53
2023-07-30T19:24:51.336Z,44.35
2023-07-30T19:27:18.256Z,44.28
2023-07-30T19:29:45.057Z,44.63
2023-07-30T19:32:12.073Z,44.36
2023-07-30T19:34:38.752Z,44.52
2023-07-30T19:37:05.662Z,44.57
2023-07-30T19:39:32.484Z,44.60
2023-07-30T19:41:59.189Z,44.72
2023-07-30T19:44:26.053Z,44.69
2023-07-30T19:46:53.008Z,44.98
2023-07-30T19:49:20.705Z,45.41
2023-07-30T19:51:47.657Z,45.32
2023-07-30T19:54:14.414Z,45.47
2023-07-30T19:56:41.446Z,45.92
2023-07-30T19:59:08.508Z,45.91
2023-07-30T20:01:35.459Z,46.39
2023-07-30T20:04:02.318Z,46.46
2023-07-30T20:06:29.270Z,46.38
2023-07-30T20:08:55.947Z,46.58
2023-07-30T20:11:25.490Z,46.50
2023-07-30T20:13:52.502Z,46.63
2023-07-30T20:16:19.261Z,47.04
2023-07-30T20:18:46.305Z,47.15
2023-07-30T20:21:13.047Z,47.42
2023-07-30T20:23:39.809Z,47.33
2023-07-30T20:26:17.310Z,47.49
2023-07-30T20:28:45.655Z,47.44
2023-07-30T20:31:12.824Z,47.66
2023-07-30T20:33:40.841Z,47.78
2023-07-30T20:36:07.593Z,48.03
2023-07-30T20:38:34.378Z,47.77
2023-07-30T20:41:01.312Z,48.14
2023-07-30T20:43:28.408Z,47.93
2023-07-30T20:45:55.428Z,48.05
2023-07-30T20:48:22.560Z,48.02
2023-07-30T20:50:49.634Z,48.24
2023-07-30T20:53:16.886Z,48.00
2023-07-30T20:55:43.812Z,47.73
2023-07-30T20:58:10.740Z,48.08
2023-07-30T21:00:37.905Z,47.88
2023-07-30T21:03:04.776Z,47.98
2023-07-30T21:05:31.521Z,48.24
2023-07-30T21:07:58.163Z,47.92
2023-07-30T21:10:25.079Z,48.04
2023-07-30T21:12:51.951Z,48.37
2023-07-30T21:15:18.721Z,48.13
2023-07-30T21:17:45.823Z,48.49
2023-07-30T21:20:13.041Z,48.55
2023-07-30T21:22:40.041Z,48.49
2023-07-30T21:25:07.716Z,48.77
2023-07-30T21:27:34.716Z,48.68
2023-07-30T21:30:02.106Z,48.63
2023-07-30T21:32:29.559Z,48.96
2023-07-30T21:34:56.428Z,48.77
2023-07-30T21:37:24.079Z,49.01
2023-07-30T21:39:51.020Z,49.09
2023-07-30T21:42:17.965Z,49.05
2023-07-30T21:44:44.766Z,49.58
2023-07-30T21:47:11.701Z,49.66
2023-07-30T21:49:38.675Z,49.48
2023-07-30T21:52:33.452Z,49.59
2023-07-30T21:55:00.643Z,49.60
2023-07-30T21:57:27.579Z,49.41
2023-07-30T21:59:54.599Z,49.73
2023-07-30T22:02:23.464Z,49.74
2023-07-30T22:04:50.527Z,50.03
2023-07-30T22:07:17.485Z,50.03
2023-07-30T22:09:44.566Z,50.12
2023-07-30T22:12:11.723Z,50.05
2023-07-30T22:14:39.239Z,50.15
2023-07-30T22:17:06.771Z,50.38
2023-07-30T22:19:34.125Z,50.49
2023-07-30T22:22:00.965Z,50.49
2023-07-30T22:24:28.240Z,50.63
2023-07-30T22:26:55.224Z,50.65
2023-07-30T22:29:22.172Z,50.58
2023-07-30T22:31:48.960Z,50.48
2023-07-30T22:34:15.643Z,50.62
2023-07-30T22:36:42.769Z,50.51
2023-07-30T22:39:09.654Z,50.37
2023-07-30T22:41:36.343Z,50.44
2023-07-30T22:44:03.082Z,50.38
2023-07-30T22:46:29.885Z,50.38
2023-07-30T22:48:56.765Z,50.39
2023-07-30T22:51:23.488Z,50.77
2023-07-30T22:53:50.274Z,50.71
2023-07-30T22:56:17.124Z,50.79
2023-07-30T22:58:43.812Z,50.82
2023-07-30T23:01:10.570Z,50.58
2023-07-30T23:03:37.699Z,50.65
2023-07-30T23:06:04.409Z,50.50
2023-07-30T23:08:31.452Z,50.74
2023-07-30T23:10:58.309Z,50.65
2023-07-30T23:13:25.177Z,50.96
2023-07-30T23:15:52.193Z,50.90
2023-07-30T23:18:18.937Z,50.94
2023-07-30T23:20:45.720Z,50.84
2023-07-30T23:23:12.393Z,50.92
2023-07-30T23:25:39.249Z,51.11
2023-07-30T23:28:05.981Z,51.13
2023-07-30T23:30:33.412Z,50.70
2023-07-30T23:33:00.132Z,50.77
2023-07-30T23:35:28.823Z,50.91
2023-07-30T23:37:55.479Z,50.81
2023-07-30T23:40:24.130Z,51.18
2023-07-30T23:42:51.073Z,50.99
2023-07-30T23:45:18.984Z,50.88
2023-07-30T23:47:46.054Z,51.13
2023-07-30T23:50:12.757Z,51.00
2023-07-30T23:52:39.401Z,50.84
2023-07-30T23:55:07.236Z,50.73
2023-07-30T23:57:34.233Z,51.10
